sensor_id;sensor_type;location;lat;lon;timestamp;P1;durP1;ratioP1;P2;durP2;ratioP2
30472;SDS011;17263;48.160;11.452;2024-02-21T00:01:03;6.47;;;2.57;;
30472;SDS011;17263;48.160;11.452;2024-02-21T00:03:30;3.87;;;2.07;;
30472;SDS011;17263;48.160;11.452;2024-02-21T00:05:56;5.03;;;2.37;;
30472;SDS011;17263;48.160;11.452;2024-02-21T00:08:22;5.00;;;2.10;;
30472;SDS011;17263;48.160;11.452;2024-02-21T00:10:48;5.67;;;2.43;;
30472;SDS011;17263;48.160;11.452;2024-02-21T00:13:14;4.67;;;2.40;;
30472;SDS011;17263;48.160;11.452;2024-02-21T00:15:40;5.70;;;2.20;;
30472;SDS011;17263;48.160;11.452;2024-02-21T00:18:06;8.37;;;2.17;;
30472;SDS011;17263;48.160;11.452;2024-02-21T00:20:32;4.33;;;2.00;;
30472;SDS011;17263;48.160;11.452;2024-02-21T00:22:58;3.67;;;2.20;;
30472;SDS011;17263;48.160;11.452;2024-02-21T00:25:24;4.83;;;2.10;;
30472;SDS011;17263;48.160;11.452;2024-02-21T00:27:50;5.10;;;2.33;;
30472;SDS011;17263;48.160;11.452;2024-02-21T00:30:16;5.53;;;2.47;;
30472;SDS011;17263;48.160;11.452;2024-02-21T00:32:43;5.73;;;2.47;;
30472;SDS011;17263;48.160;11.452;2024-02-21T00:35:09;4.70;;;2.37;;
30472;SDS011;17263;48.160;11.452;2024-02-21T00:37:35;3.37;;;2.10;;
30472;SDS011;17263;48.160;11.452;2024-02-21T00:40:01;5.70;;;2.63;;
30472;SDS011;17263;48.160;11.452;2024-02-21T00:42:27;5.83;;;2.37;;
30472;SDS011;17263;48.160;11.452;2024-02-21T00:44:53;4.80;;;2.60;;
30472;SDS011;17263;48.160;11.452;2024-02-21T00:47:19;8.70;;;3.00;;
30472;SDS011;17263;48.160;11.452;2024-02-21T00:49:45;5.93;;;2.13;;
30472;SDS011;17263;48.160;11.452;2024-02-21T00:52:11;3.90;;;2.17;;
30472;SDS011;17263;48.160;11.452;2024-02-21T00:54:37;7.00;;;2.67;;
30472;SDS011;17263;48.160;11.452;2024-02-21T00:57:03;6.47;;;2.70;;
30472;SDS011;17263;48.160;11.452;2024-02-21T00:59:29;7.50;;;2.70;;
30472;SDS011;17263;48.160;11.452;2024-02-21T01:01:55;5.30;;;2.60;;
30472;SDS011;17263;48.160;11.452;2024-02-21T01:04:21;8.17;;;2.90;;
30472;SDS011;17263;48.160;11.452;2024-02-21T01:06:50;8.37;;;3.23;;
30472;SDS011;17263;48.160;11.452;2024-02-21T01:09:16;6.73;;;2.50;;
30472;SDS011;17263;48.160;11.452;2024-02-21T01:11:42;5.50;;;2.50;;
30472;SDS011;17263;48.160;11.452;2024-02-21T01:14:08;4.20;;;2.40;;
30472;SDS011;17263;48.160;11.452;2024-02-21T01:16:34;4.03;;;2.43;;
30472;SDS011;17263;48.160;11.452;2024-02-21T01:19:00;3.57;;;2.13;;
30472;SDS011;17263;48.160;11.452;2024-02-21T01:21:26;5.57;;;2.30;;
30472;SDS011;17263;48.160;11.452;2024-02-21T01:23:52;6.07;;;3.07;;
30472;SDS011;17263;48.160;11.452;2024-02-21T01:26:18;5.60;;;2.90;;
30472;SDS011;17263;48.160;11.452;2024-02-21T01:28:44;4.63;;;2.73;;
30472;SDS011;17263;48.160;11.452;2024-02-21T01:31:10;5.10;;;2.60;;
30472;SDS011;17263;48.160;11.452;2024-02-21T01:33:36;6.20;;;2.70;;
30472;SDS011;17263;48.160;11.452;2024-02-21T01:36:04;2.57;;;2.37;;
30472;SDS011;17263;48.160;11.452;2024-02-21T01:38:33;4.80;;;2.70;;
30472;SDS011;17263;48.160;11.452;2024-02-21T01:41:00;4.27;;;2.50;;
30472;SDS011;17263;48.160;11.452;2024-02-21T01:43:26;3.97;;;2.30;;
30472;SDS011;17263;48.160;11.452;2024-02-21T01:45:53;3.67;;;2.50;;
30472;SDS011;17263;48.160;11.452;2024-02-21T01:48:20;4.40;;;2.27;;
30472;SDS011;17263;48.160;11.452;2024-02-21T01:50:48;5.03;;;2.50;;
30472;SDS011;17263;48.160;11.452;2024-02-21T01:53:28;4.13;;;2.70;;
30472;SDS011;17263;48.160;11.452;2024-02-21T01:55:56;3.30;;;2.17;;
30472;SDS011;17263;48.160;11.452;2024-02-21T01:58:22;2.43;;;2.03;;
30472;SDS011;17263;48.160;11.452;2024-02-21T02:00:49;5.53;;;2.27;;
30472;SDS011;17263;48.160;11.452;2024-02-21T02:03:16;6.70;;;2.60;;
30472;SDS011;17263;48.160;11.452;2024-02-21T02:05:46;3.43;;;2.20;;
30472;SDS011;17263;48.160;11.452;2024-02-21T02:08:16;4.07;;;2.10;;
30472;SDS011;17263;48.160;11.452;2024-02-21T02:10:43;3.13;;;2.20;;
30472;SDS011;17263;48.160;11.452;2024-02-21T02:13:09;5.43;;;2.10;;
30472;SDS011;17263;48.160;11.452;2024-02-21T02:15:39;6.20;;;2.50;;
30472;SDS011;17263;48.160;11.452;2024-02-21T02:18:10;4.30;;;2.30;;
30472;SDS011;17263;48.160;11.452;2024-02-21T02:20:36;4.27;;;2.20;;
30472;SDS011;17263;48.160;11.452;2024-02-21T02:25:59;7.30;;;2.47;;
30472;SDS011;17263;48.160;11.452;2024-02-21T02:28:26;7.27;;;2.50;;
30472;SDS011;17263;48.160;11.452;2024-02-21T02:30:52;3.27;;;1.90;;
30472;SDS011;17263;48.160;11.452;2024-02-21T02:33:18;4.53;;;2.27;;
30472;SDS011;17263;48.160;11.452;2024-02-21T02:35:45;3.80;;;1.77;;
30472;SDS011;17263;48.160;11.452;2024-02-21T02:38:11;2.77;;;1.70;;
30472;SDS011;17263;48.160;11.452;2024-02-21T02:40:38;3.30;;;2.10;;
30472;SDS011;17263;48.160;11.452;2024-02-21T02:43:06;3.20;;;1.93;;
30472;SDS011;17263;48.160;11.452;2024-02-21T02:45:32;2.57;;;1.70;;
30472;SDS011;17263;48.160;11.452;2024-02-21T02:47:58;1.87;;;1.63;;
30472;SDS011;17263;48.160;11.452;2024-02-21T02:50:25;4.30;;;1.90;;
30472;SDS011;17263;48.160;11.452;2024-02-21T02:52:55;3.63;;;2.07;;
30472;SDS011;17263;48.160;11.452;2024-02-21T02:55:21;2.97;;;1.70;;
30472;SDS011;17263;48.160;11.452;2024-02-21T02:57:47;4.90;;;2.17;;
30472;SDS011;17263;48.160;11.452;2024-02-21T03:00:13;5.37;;;1.80;;
30472;SDS011;17263;48.160;11.452;2024-02-21T03:02:41;4.43;;;1.90;;
30472;SDS011;17263;48.160;11.452;2024-02-21T03:05:11;2.67;;;2.03;;
30472;SDS011;17263;48.160;11.452;2024-02-21T03:07:41;2.97;;;1.60;;
30472;SDS011;17263;48.160;11.452;2024-02-21T03:10:08;2.93;;;1.60;;
30472;SDS011;17263;48.160;11.452;2024-02-21T03:12:35;3.27;;;1.90;;
30472;SDS011;17263;48.160;11.452;2024-02-21T03:15:01;5.50;;;2.00;;
30472;SDS011;17263;48.160;11.452;2024-02-21T03:17:27;3.97;;;1.77;;
30472;SDS011;17263;48.160;11.452;2024-02-21T03:19:53;4.90;;;1.90;;
30472;SDS011;17263;48.160;11.452;2024-02-21T03:22:21;2.50;;;1.60;;
30472;SDS011;17263;48.160;11.452;2024-02-21T03:24:47;2.63;;;1.87;;
30472;SDS011;17263;48.160;11.452;2024-02-21T03:27:14;4.80;;;1.80;;
30472;SDS011;17263;48.160;11.452;2024-02-21T03:29:40;2.23;;;1.77;;
30472;SDS011;17263;48.160;11.452;2024-02-21T03:32:06;4.10;;;1.93;;
30472;SDS011;17263;48.160;11.452;2024-02-21T03:34:32;4.17;;;1.90;;
30472;SDS011;17263;48.160;11.452;2024-02-21T03:36:58;2.43;;;1.60;;
30472;SDS011;17263;48.160;11.452;2024-02-21T03:39:24;2.03;;;1.63;;
30472;SDS011;17263;48.160;11.452;2024-02-21T03:41:50;3.87;;;1.63;;
30472;SDS011;17263;48.160;11.452;2024-02-21T03:44:17;2.70;;;1.90;;
30472;SDS011;17263;48.160;11.452;2024-02-21T03:46:43;2.70;;;1.80;;
30472;SDS011;17263;48.160;11.452;2024-02-21T03:49:09;2.10;;;1.67;;
30472;SDS011;17263;48.160;11.452;2024-02-21T03:51:35;4.60;;;1.70;;
30472;SDS011;17263;48.160;11.452;2024-02-21T03:54:01;2.63;;;1.60;;
30472;SDS011;17263;48.160;11.452;2024-02-21T03:56:27;5.07;;;2.03;;
30472;SDS011;17263;48.160;11.452;2024-02-21T03:58:53;2.07;;;1.60;;
30472;SDS011;17263;48.160;11.452;2024-02-21T04:01:19;3.27;;;1.77;;
30472;SDS011;17263;48.160;11.452;2024-02-21T04:03:45;2.37;;;1.60;;
30472;SDS011;17263;48.160;11.452;2024-02-21T04:06:11;2.57;;;1.67;;
30472;SDS011;17263;48.160;11.452;2024-02-21T04:08:37;3.20;;;1.70;;
30472;SDS011;17263;48.160;11.452;2024-02-21T04:11:04;2.20;;;1.60;;
30472;SDS011;17263;48.160;11.452;2024-02-21T04:13:30;2.97;;;1.50;;
30472;SDS011;17263;48.160;11.452;2024-02-21T04:15:56;2.50;;;1.40;;
30472;SDS011;17263;48.160;11.452;2024-02-21T04:18:22;2.47;;;1.50;;
30472;SDS011;17263;48.160;11.452;2024-02-21T04:20:48;2.43;;;1.50;;
30472;SDS011;17263;48.160;11.452;2024-02-21T04:23:15;1.87;;;1.47;;
30472;SDS011;17263;48.160;11.452;2024-02-21T04:25:41;3.47;;;1.60;;
30472;SDS011;17263;48.160;11.452;2024-02-21T04:28:07;3.30;;;1.77;;
30472;SDS011;17263;48.160;11.452;2024-02-21T04:30:33;2.40;;;1.60;;
30472;SDS011;17263;48.160;11.452;2024-02-21T04:32:59;2.70;;;1.70;;
30472;SDS011;17263;48.160;11.452;2024-02-21T04:35:26;3.30;;;1.70;;
30472;SDS011;17263;48.160;11.452;2024-02-21T04:37:52;3.20;;;1.50;;
30472;SDS011;17263;48.160;11.452;2024-02-21T04:40:18;1.97;;;1.63;;
30472;SDS011;17263;48.160;11.452;2024-02-21T04:42:44;2.47;;;1.60;;
30472;SDS011;17263;48.160;11.452;2024-02-21T04:45:10;3.63;;;1.50;;
30472;SDS011;17263;48.160;11.452;2024-02-21T04:47:37;2.13;;;1.50;;
30472;SDS011;17263;48.160;11.452;2024-02-21T04:50:03;6.63;;;1.83;;
30472;SDS011;17263;48.160;11.452;2024-02-21T04:52:29;8.60;;;1.80;;
30472;SDS011;17263;48.160;11.452;2024-02-21T04:54:55;2.03;;;1.57;;
30472;SDS011;17263;48.160;11.452;2024-02-21T04:57:21;3.23;;;1.40;;
30472;SDS011;17263;48.160;11.452;2024-02-21T04:59:47;2.37;;;1.43;;
30472;SDS011;17263;48.160;11.452;2024-02-21T05:02:13;5.70;;;1.63;;
30472;SDS011;17263;48.160;11.452;2024-02-21T05:04:40;2.27;;;1.70;;
30472;SDS011;17263;48.160;11.452;2024-02-21T05:07:07;2.97;;;1.60;;
30472;SDS011;17263;48.160;11.452;2024-02-21T05:09:33;2.47;;;1.40;;
30472;SDS011;17263;48.160;11.452;2024-02-21T05:11:59;3.50;;;1.60;;
30472;SDS011;17263;48.160;11.452;2024-02-21T05:14:26;1.70;;;1.30;;
30472;SDS011;17263;48.160;11.452;2024-02-21T05:16:55;2.80;;;1.50;;
30472;SDS011;17263;48.160;11.452;2024-02-21T05:19:21;1.47;;;1.23;;
30472;SDS011;17263;48.160;11.452;2024-02-21T05:21:47;1.40;;;1.07;;
30472;SDS011;17263;48.160;11.452;2024-02-21T05:24:13;2.90;;;1.57;;
30472;SDS011;17263;48.160;11.452;2024-02-21T05:26:39;2.13;;;1.60;;
30472;SDS011;17263;48.160;11.452;2024-02-21T05:29:05;3.23;;;1.43;;
30472;SDS011;17263;48.160;11.452;2024-02-21T05:31:42;3.53;;;1.67;;
30472;SDS011;17263;48.160;11.452;2024-02-21T05:34:17;3.33;;;1.60;;
30472;SDS011;17263;48.160;11.452;2024-02-21T05:36:43;3.33;;;1.30;;
30472;SDS011;17263;48.160;11.452;2024-02-21T05:39:09;1.70;;;1.20;;
30472;SDS011;17263;48.160;11.452;2024-02-21T05:41:35;2.40;;;1.50;;
30472;SDS011;17263;48.160;11.452;2024-02-21T05:44:01;2.27;;;1.40;;
30472;SDS011;17263;48.160;11.452;2024-02-21T05:46:28;2.30;;;1.23;;
30472;SDS011;17263;48.160;11.452;2024-02-21T05:48:54;1.80;;;1.40;;
30472;SDS011;17263;48.160;11.452;2024-02-21T05:51:20;1.97;;;1.20;;
30472;SDS011;17263;48.160;11.452;2024-02-21T05:53:46;2.47;;;1.20;;
30472;SDS011;17263;48.160;11.452;2024-02-21T05:56:12;1.57;;;1.10;;
30472;SDS011;17263;48.160;11.452;2024-02-21T05:58:39;2.47;;;1.37;;
30472;SDS011;17263;48.160;11.452;2024-02-21T06:01:05;2.73;;;1.40;;
30472;SDS011;17263;48.160;11.452;2024-02-21T06:03:33;3.67;;;1.60;;
30472;SDS011;17263;48.160;11.452;2024-02-21T06:06:00;1.47;;;1.20;;
30472;SDS011;17263;48.160;11.452;2024-02-21T06:08:26;2.00;;;1.27;;
30472;SDS011;17263;48.160;11.452;2024-02-21T06:10:52;1.70;;;1.13;;
30472;SDS011;17263;48.160;11.452;2024-02-21T06:13:21;2.23;;;1.10;;
30472;SDS011;17263;48.160;11.452;2024-02-21T06:15:49;1.77;;;1.10;;
30472;SDS011;17263;48.160;11.452;2024-02-21T06:18:19;1.63;;;1.30;;
30472;SDS011;17263;48.160;11.452;2024-02-21T06:20:45;3.50;;;1.43;;
30472;SDS011;17263;48.160;11.452;2024-02-21T06:23:20;2.13;;;1.30;;
30472;SDS011;17263;48.160;11.452;2024-02-21T06:25:46;2.57;;;1.30;;
30472;SDS011;17263;48.160;11.452;2024-02-21T06:28:13;1.67;;;1.43;;
30472;SDS011;17263;48.160;11.452;2024-02-21T06:30:39;1.50;;;1.13;;
30472;SDS011;17263;48.160;11.452;2024-02-21T06:33:06;1.57;;;1.20;;
30472;SDS011;17263;48.160;11.452;2024-02-21T06:35:33;1.20;;;1.10;;
30472;SDS011;17263;48.160;11.452;2024-02-21T06:37:59;1.47;;;1.10;;
30472;SDS011;17263;48.160;11.452;2024-02-21T06:40:25;1.50;;;1.10;;
30472;SDS011;17263;48.160;11.452;2024-02-21T06:42:51;1.87;;;1.20;;
30472;SDS011;17263;48.160;11.452;2024-02-21T06:45:17;2.00;;;1.43;;
30472;SDS011;17263;48.160;11.452;2024-02-21T06:47:43;4.37;;;1.37;;
30472;SDS011;17263;48.160;11.452;2024-02-21T06:50:11;3.37;;;2.17;;
30472;SDS011;17263;48.160;11.452;2024-02-21T06:52:37;4.87;;;1.57;;
30472;SDS011;17263;48.160;11.452;2024-02-21T06:55:03;2.30;;;1.40;;
30472;SDS011;17263;48.160;11.452;2024-02-21T06:57:29;1.40;;;1.00;;
30472;SDS011;17263;48.160;11.452;2024-02-21T06:59:55;2.90;;;1.30;;
30472;SDS011;17263;48.160;11.452;2024-02-21T07:02:21;7.87;;;1.20;;
30472;SDS011;17263;48.160;11.452;2024-02-21T07:04:47;2.43;;;1.33;;
30472;SDS011;17263;48.160;11.452;2024-02-21T07:07:13;3.17;;;1.30;;
30472;SDS011;17263;48.160;11.452;2024-02-21T07:09:39;1.87;;;1.30;;
30472;SDS011;17263;48.160;11.452;2024-02-21T07:12:05;2.13;;;1.50;;
30472;SDS011;17263;48.160;11.452;2024-02-21T07:14:32;3.10;;;1.30;;
30472;SDS011;17263;48.160;11.452;2024-02-21T07:16:58;6.90;;;1.47;;
30472;SDS011;17263;48.160;11.452;2024-02-21T07:19:24;2.40;;;1.30;;
30472;SDS011;17263;48.160;11.452;2024-02-21T07:21:50;4.80;;;1.10;;
30472;SDS011;17263;48.160;11.452;2024-02-21T07:24:16;1.17;;;1.07;;
30472;SDS011;17263;48.160;11.452;2024-02-21T07:26:43;3.13;;;1.33;;
30472;SDS011;17263;48.160;11.452;2024-02-21T07:29:09;2.53;;;1.13;;
30472;SDS011;17263;48.160;11.452;2024-02-21T07:31:41;1.63;;;1.37;;
30472;SDS011;17263;48.160;11.452;2024-02-21T07:34:08;1.57;;;1.20;;
30472;SDS011;17263;48.160;11.452;2024-02-21T07:36:34;7.73;;;1.27;;
30472;SDS011;17263;48.160;11.452;2024-02-21T07:39:00;2.00;;;1.30;;
30472;SDS011;17263;48.160;11.452;2024-02-21T07:41:26;2.50;;;1.20;;
30472;SDS011;17263;48.160;11.452;2024-02-21T07:43:55;2.07;;;1.27;;
30472;SDS011;17263;48.160;11.452;2024-02-21T07:46:22;3.90;;;1.00;;
30472;SDS011;17263;48.160;11.452;2024-02-21T07:48:48;1.20;;;1.07;;
30472;SDS011;17263;48.160;11.452;2024-02-21T07:51:15;1.60;;;1.20;;
30472;SDS011;17263;48.160;11.452;2024-02-21T07:53:43;1.47;;;1.17;;
30472;SDS011;17263;48.160;11.452;2024-02-21T07:56:13;2.20;;;1.13;;
30472;SDS011;17263;48.160;11.452;2024-02-21T07:58:40;1.67;;;1.10;;
30472;SDS011;17263;48.160;11.452;2024-02-21T08:01:07;2.37;;;1.23;;
30472;SDS011;17263;48.160;11.452;2024-02-21T08:03:34;4.87;;;1.17;;
30472;SDS011;17263;48.160;11.452;2024-02-21T08:06:00;2.93;;;1.30;;
30472;SDS011;17263;48.160;11.452;2024-02-21T08:08:27;3.07;;;1.00;;
30472;SDS011;17263;48.160;11.452;2024-02-21T08:10:53;2.90;;;1.00;;
30472;SDS011;17263;48.160;11.452;2024-02-21T08:13:19;2.87;;;1.03;;
30472;SDS011;17263;48.160;11.452;2024-02-21T08:15:45;2.53;;;1.00;;
30472;SDS011;17263;48.160;11.452;2024-02-21T08:18:11;4.40;;;1.27;;
30472;SDS011;17263;48.160;11.452;2024-02-21T08:20:37;2.20;;;1.50;;
30472;SDS011;17263;48.160;11.452;2024-02-21T08:23:03;1.97;;;1.07;;
30472;SDS011;17263;48.160;11.452;2024-02-21T08:25:29;2.33;;;1.10;;
30472;SDS011;17263;48.160;11.452;2024-02-21T08:27:57;2.57;;;1.13;;
30472;SDS011;17263;48.160;11.452;2024-02-21T08:30:23;2.90;;;0.93;;
30472;SDS011;17263;48.160;11.452;2024-02-21T08:32:49;4.07;;;1.17;;
30472;SDS011;17263;48.160;11.452;2024-02-21T08:35:15;3.70;;;1.07;;
30472;SDS011;17263;48.160;11.452;2024-02-21T08:37:44;4.27;;;1.00;;
30472;SDS011;17263;48.160;11.452;2024-02-21T08:40:12;1.90;;;1.03;;
30472;SDS011;17263;48.160;11.452;2024-02-21T08:42:38;1.00;;;0.90;;
30472;SDS011;17263;48.160;11.452;2024-02-21T08:45:05;2.40;;;1.00;;
30472;SDS011;17263;48.160;11.452;2024-02-21T08:47:31;0.97;;;0.87;;
30472;SDS011;17263;48.160;11.452;2024-02-21T08:49:57;1.57;;;1.30;;
30472;SDS011;17263;48.160;11.452;2024-02-21T08:52:23;1.03;;;0.93;;
30472;SDS011;17263;48.160;11.452;2024-02-21T08:54:49;1.37;;;1.10;;
30472;SDS011;17263;48.160;11.452;2024-02-21T08:57:19;1.70;;;1.40;;
30472;SDS011;17263;48.160;11.452;2024-02-21T08:59:45;2.33;;;1.27;;
30472;SDS011;17263;48.160;11.452;2024-02-21T09:02:12;1.47;;;1.20;;
30472;SDS011;17263;48.160;11.452;2024-02-21T09:04:39;2.03;;;1.17;;
30472;SDS011;17263;48.160;11.452;2024-02-21T09:07:05;3.13;;;1.00;;
30472;SDS011;17263;48.160;11.452;2024-02-21T09:09:31;2.67;;;1.13;;
30472;SDS011;17263;48.160;11.452;2024-02-21T09:11:58;1.80;;;1.30;;
30472;SDS011;17263;48.160;11.452;2024-02-21T09:14:31;2.60;;;0.90;;
30472;SDS011;17263;48.160;11.452;2024-02-21T09:16:58;3.37;;;1.20;;
30472;SDS011;17263;48.160;11.452;2024-02-21T09:19:24;1.97;;;1.40;;
30472;SDS011;17263;48.160;11.452;2024-02-21T09:21:50;1.73;;;0.97;;
30472;SDS011;17263;48.160;11.452;2024-02-21T09:24:17;1.33;;;1.10;;
30472;SDS011;17263;48.160;11.452;2024-02-21T09:26:43;1.80;;;1.20;;
30472;SDS011;17263;48.160;11.452;2024-02-21T09:29:09;1.20;;;0.83;;
30472;SDS011;17263;48.160;11.452;2024-02-21T09:31:35;4.13;;;1.20;;
30472;SDS011;17263;48.160;11.452;2024-02-21T09:34:01;4.00;;;1.13;;
30472;SDS011;17263;48.160;11.452;2024-02-21T09:36:27;2.63;;;0.90;;
30472;SDS011;17263;48.160;11.452;2024-02-21T09:38:53;1.13;;;0.80;;
30472;SDS011;17263;48.160;11.452;2024-02-21T09:41:26;1.30;;;0.90;;
30472;SDS011;17263;48.160;11.452;2024-02-21T09:43:53;0.80;;;0.63;;
30472;SDS011;17263;48.160;11.452;2024-02-21T09:46:20;2.20;;;1.00;;
30472;SDS011;17263;48.160;11.452;2024-02-21T09:49:13;3.40;;;0.90;;
30472;SDS011;17263;48.160;11.452;2024-02-21T09:51:49;1.60;;;0.90;;
30472;SDS011;17263;48.160;11.452;2024-02-21T09:54:19;1.27;;;0.90;;
30472;SDS011;17263;48.160;11.452;2024-02-21T09:56:46;1.57;;;1.00;;
30472;SDS011;17263;48.160;11.452;2024-02-21T09:59:16;1.83;;;1.10;;
30472;SDS011;17263;48.160;11.452;2024-02-21T10:01:42;2.83;;;0.97;;
30472;SDS011;17263;48.160;11.452;2024-02-21T10:04:09;2.23;;;0.90;;
30472;SDS011;17263;48.160;11.452;2024-02-21T10:06:36;1.87;;;0.80;;
30472;SDS011;17263;48.160;11.452;2024-02-21T10:09:07;1.13;;;1.00;;
30472;SDS011;17263;48.160;11.452;2024-02-21T10:11:33;1.53;;;1.00;;
30472;SDS011;17263;48.160;11.452;2024-02-21T10:14:07;1.50;;;1.10;;
30472;SDS011;17263;48.160;11.452;2024-02-21T10:16:33;2.20;;;0.70;;
30472;SDS011;17263;48.160;11.452;2024-02-21T10:18:59;1.30;;;0.80;;
30472;SDS011;17263;48.160;11.452;2024-02-21T10:21:25;1.10;;;0.70;;
30472;SDS011;17263;48.160;11.452;2024-02-21T10:23:51;1.53;;;0.93;;
30472;SDS011;17263;48.160;11.452;2024-02-21T10:26:18;2.77;;;0.90;;
30472;SDS011;17263;48.160;11.452;2024-02-21T10:28:45;2.87;;;1.00;;
30472;SDS011;17263;48.160;11.452;2024-02-21T10:31:25;3.63;;;0.87;;
30472;SDS011;17263;48.160;11.452;2024-02-21T10:33:56;3.40;;;1.30;;
30472;SDS011;17263;48.160;11.452;2024-02-21T10:36:23;4.03;;;1.03;;
30472;SDS011;17263;48.160;11.452;2024-02-21T10:38:50;13.20;;;2.03;;
30472;SDS011;17263;48.160;11.452;2024-02-21T10:41:18;1.30;;;0.70;;
30472;SDS011;17263;48.160;11.452;2024-02-21T10:43:46;1.93;;;0.90;;
30472;SDS011;17263;48.160;11.452;2024-02-21T10:46:19;2.57;;;0.80;;
30472;SDS011;17263;48.160;11.452;2024-02-21T10:48:47;0.90;;;0.70;;
30472;SDS011;17263;48.160;11.452;2024-02-21T10:51:17;1.17;;;0.70;;
30472;SDS011;17263;48.160;11.452;2024-02-21T10:56:32;1.17;;;0.70;;
30472;SDS011;17263;48.160;11.452;2024-02-21T10:59:03;1.07;;;0.60;;
30472;SDS011;17263;48.160;11.452;2024-02-21T11:01:30;2.13;;;0.93;;
30472;SDS011;17263;48.160;11.452;2024-02-21T11:03:58;1.93;;;0.83;;
30472;SDS011;17263;48.160;11.452;2024-02-21T11:06:26;0.70;;;0.60;;
30472;SDS011;17263;48.160;11.452;2024-02-21T11:11:28;1.27;;;0.70;;
30472;SDS011;17263;48.160;11.452;2024-02-21T11:16:52;1.13;;;0.80;;
30472;SDS011;17263;48.160;11.452;2024-02-21T11:19:21;2.17;;;0.60;;
30472;SDS011;17263;48.160;11.452;2024-02-21T11:21:49;0.83;;;0.60;;
30472;SDS011;17263;48.160;11.452;2024-02-21T11:24:29;1.03;;;0.60;;
30472;SDS011;17263;48.160;11.452;2024-02-21T11:26:56;0.63;;;0.50;;
30472;SDS011;17263;48.160;11.452;2024-02-21T11:29:32;0.90;;;0.57;;
30472;SDS011;17263;48.160;11.452;2024-02-21T11:31:58;1.00;;;0.70;;
30472;SDS011;17263;48.160;11.452;2024-02-21T11:34:28;1.90;;;0.70;;
30472;SDS011;17263;48.160;11.452;2024-02-21T11:36:55;3.03;;;0.73;;
30472;SDS011;17263;48.160;11.452;2024-02-21T11:39:22;1.10;;;0.60;;
30472;SDS011;17263;48.160;11.452;2024-02-21T11:42:02;0.67;;;0.60;;
30472;SDS011;17263;48.160;11.452;2024-02-21T11:44:29;0.50;;;0.50;;
30472;SDS011;17263;48.160;11.452;2024-02-21T11:46:56;0.60;;;0.60;;
30472;SDS011;17263;48.160;11.452;2024-02-21T11:49:24;1.87;;;1.00;;
30472;SDS011;17263;48.160;11.452;2024-02-21T11:51:58;0.87;;;0.87;;
30472;SDS011;17263;48.160;11.452;2024-02-21T11:54:31;0.80;;;0.60;;
30472;SDS011;17263;48.160;11.452;2024-02-21T11:56:57;2.43;;;1.00;;
30472;SDS011;17263;48.160;11.452;2024-02-21T11:59:23;0.90;;;0.67;;
30472;SDS011;17263;48.160;11.452;2024-02-21T12:01:49;1.20;;;1.10;;
30472;SDS011;17263;48.160;11.452;2024-02-21T12:04:17;0.43;;;0.40;;
30472;SDS011;17263;48.160;11.452;2024-02-21T12:06:45;0.57;;;0.57;;
30472;SDS011;17263;48.160;11.452;2024-02-21T12:09:15;0.50;;;0.50;;
30472;SDS011;17263;48.160;11.452;2024-02-21T12:11:44;0.70;;;0.40;;
30472;SDS011;17263;48.160;11.452;2024-02-21T12:14:15;1.67;;;0.77;;
30472;SDS011;17263;48.160;11.452;2024-02-21T12:16:42;0.87;;;0.50;;
30472;SDS011;17263;48.160;11.452;2024-02-21T12:19:13;0.70;;;0.60;;
30472;SDS011;17263;48.160;11.452;2024-02-21T12:21:39;0.73;;;0.50;;
30472;SDS011;17263;48.160;11.452;2024-02-21T12:26:42;0.90;;;0.70;;
30472;SDS011;17263;48.160;11.452;2024-02-21T12:29:08;1.27;;;0.97;;
30472;SDS011;17263;48.160;11.452;2024-02-21T12:31:35;0.80;;;0.63;;
30472;SDS011;17263;48.160;11.452;2024-02-21T12:34:04;0.57;;;0.50;;
30472;SDS011;17263;48.160;11.452;2024-02-21T12:36:35;1.43;;;0.77;;
30472;SDS011;17263;48.160;11.452;2024-02-21T12:39:06;1.00;;;0.80;;
30472;SDS011;17263;48.160;11.452;2024-02-21T12:41:34;0.70;;;0.70;;
30472;SDS011;17263;48.160;11.452;2024-02-21T12:44:06;0.50;;;0.50;;
30472;SDS011;17263;48.160;11.452;2024-02-21T12:46:36;0.80;;;0.50;;
30472;SDS011;17263;48.160;11.452;2024-02-21T12:49:03;1.30;;;0.80;;
30472;SDS011;17263;48.160;11.452;2024-02-21T12:51:30;0.40;;;0.40;;
30472;SDS011;17263;48.160;11.452;2024-02-21T12:53:56;1.27;;;0.70;;
30472;SDS011;17263;48.160;11.452;2024-02-21T12:56:22;0.70;;;0.70;;
30472;SDS011;17263;48.160;11.452;2024-02-21T12:58:50;1.13;;;0.97;;
30472;SDS011;17263;48.160;11.452;2024-02-21T13:01:16;2.23;;;0.80;;
30472;SDS011;17263;48.160;11.452;2024-02-21T13:03:42;0.60;;;0.60;;
30472;SDS011;17263;48.160;11.452;2024-02-21T13:06:08;0.70;;;0.70;;
30472;SDS011;17263;48.160;11.452;2024-02-21T13:08:37;0.50;;;0.50;;
30472;SDS011;17263;48.160;11.452;2024-02-21T13:11:03;0.53;;;0.50;;
30472;SDS011;17263;48.160;11.452;2024-02-21T13:13:30;0.77;;;0.70;;
30472;SDS011;17263;48.160;11.452;2024-02-21T13:15:57;0.70;;;0.70;;
30472;SDS011;17263;48.160;11.452;2024-02-21T13:18:23;0.70;;;0.60;;
30472;SDS011;17263;48.160;11.452;2024-02-21T13:20:49;1.33;;;0.57;;
30472;SDS011;17263;48.160;11.452;2024-02-21T13:23:15;1.80;;;0.63;;
30472;SDS011;17263;48.160;11.452;2024-02-21T13:25:41;2.20;;;0.80;;
30472;SDS011;17263;48.160;11.452;2024-02-21T13:28:09;1.63;;;0.80;;
30472;SDS011;17263;48.160;11.452;2024-02-21T13:30:35;0.70;;;0.70;;
30472;SDS011;17263;48.160;11.452;2024-02-21T13:33:01;2.70;;;2.00;;
30472;SDS011;17263;48.160;11.452;2024-02-21T13:35:28;1.30;;;0.80;;
30472;SDS011;17263;48.160;11.452;2024-02-21T13:37:54;0.70;;;0.67;;
30472;SDS011;17263;48.160;11.452;2024-02-21T13:40:20;1.03;;;0.80;;
30472;SDS011;17263;48.160;11.452;2024-02-21T13:42:46;0.97;;;0.80;;
30472;SDS011;17263;48.160;11.452;2024-02-21T13:45:13;1.43;;;0.60;;
30472;SDS011;17263;48.160;11.452;2024-02-21T13:47:40;0.73;;;0.57;;
30472;SDS011;17263;48.160;11.452;2024-02-21T13:50:06;0.60;;;0.50;;
30472;SDS011;17263;48.160;11.452;2024-02-21T13:52:36;1.23;;;0.77;;
30472;SDS011;17263;48.160;11.452;2024-02-21T13:55:03;1.07;;;0.60;;
30472;SDS011;17263;48.160;11.452;2024-02-21T13:57:29;1.63;;;0.87;;
30472;SDS011;17263;48.160;11.452;2024-02-21T13:59:55;0.90;;;0.60;;
30472;SDS011;17263;48.160;11.452;2024-02-21T14:02:21;1.07;;;0.73;;
30472;SDS011;17263;48.160;11.452;2024-02-21T14:04:47;3.80;;;1.00;;
30472;SDS011;17263;48.160;11.452;2024-02-21T14:07:13;1.70;;;0.47;;
30472;SDS011;17263;48.160;11.452;2024-02-21T14:09:39;0.80;;;0.70;;
30472;SDS011;17263;48.160;11.452;2024-02-21T14:12:05;0.73;;;0.70;;
30472;SDS011;17263;48.160;11.452;2024-02-21T14:14:35;0.50;;;0.50;;
30472;SDS011;17263;48.160;11.452;2024-02-21T14:17:02;0.93;;;0.60;;
30472;SDS011;17263;48.160;11.452;2024-02-21T14:19:29;0.70;;;0.60;;
30472;SDS011;17263;48.160;11.452;2024-02-21T14:21:56;1.17;;;0.70;;
30472;SDS011;17263;48.160;11.452;2024-02-21T14:24:22;1.20;;;0.80;;
30472;SDS011;17263;48.160;11.452;2024-02-21T14:26:49;0.60;;;0.40;;
30472;SDS011;17263;48.160;11.452;2024-02-21T14:29:15;1.90;;;0.87;;
30472;SDS011;17263;48.160;11.452;2024-02-21T14:31:41;0.83;;;0.60;;
30472;SDS011;17263;48.160;11.452;2024-02-21T14:34:08;0.50;;;0.50;;
30472;SDS011;17263;48.160;11.452;2024-02-21T14:36:34;2.13;;;1.50;;
30472;SDS011;17263;48.160;11.452;2024-02-21T14:39:00;1.73;;;1.00;;
30472;SDS011;17263;48.160;11.452;2024-02-21T14:41:26;0.80;;;0.70;;
30472;SDS011;17263;48.160;11.452;2024-02-21T14:43:53;0.70;;;0.70;;
30472;SDS011;17263;48.160;11.452;2024-02-21T14:46:21;0.53;;;0.50;;